Fritz Reuter — A8JE9 — position and weather

sailwx.info

Track history (hours):
 
Tides and Currents Weather Stations Pressure Air Temp Water Temp Dewpoint Dewpoint Depression Visibility Wind Speed Wind Dir Waves Ship Positions

Fritz Reuter

Last reported at 2017-Aug-23 23:22 UTC. Time now 2017-Sep-20 18:30 UTC.
Position N 40°00' W 030°02'.
Warning: this ship's position is 27 days out of date.

Length 178 m; draft 9.5 m.

Type: Ship (hazmat cat A). MMSI: 636091081.

Date/timePositionNaut miles runAvg speedWind from/ knotsBaromVisibWave heightAir tempDewpointWater temp
2017-Aug-23 23:22N 40°00' W 030°02'617.2
2017-Aug-23 23:00N 39°60' W 029°54'917.7
2017-Aug-23 22:30N 39°59' W 029°43'918.0
2017-Aug-23 21:59N 39°58' W 029°30'917.9
2017-Aug-23 21:29N 39°57' W 029°19'917.7
2017-Aug-23 21:00N 39°56' W 029°08'917.5
2017-Aug-23 20:30N 39°55' W 028°56'1017.8
2017-Aug-23 19:56N 39°54' W 028°43'818.3
2017-Aug-23 19:30N 39°53' W 028°33'918.4
2017-Aug-23 19:00N 39°52' W 028°21'918.2
2017-Aug-23 18:30N 39°51' W 028°09'918.1
2017-Aug-23 18:00N 39°50' W 027°58'59617.8
2017-Aug-22 08:36N 38°51' W 015°11'1217.3
2017-Aug-22 07:55N 38°49' W 014°56'717.1
2017-Aug-22 07:31N 38°49' W 014°47'917.5
2017-Aug-22 07:01N 38°48' W 014°36'1017.3
2017-Aug-22 06:26N 38°47' W 014°24'817.1
2017-Aug-22 06:00N 38°46' W 014°14'917.4
2017-Aug-22 05:30N 38°45' W 014°03'917.2
2017-Aug-22 04:59N 38°44' W 013°52'817.2
2017-Aug-22 04:30N 38°44' W 013°41'917.1
2017-Aug-22 04:00N 38°43' W 013°30'917.4
2017-Aug-22 03:31N 38°42' W 013°19'917.7
2017-Aug-22 03:01N 38°41' W 013°08'917.6
2017-Aug-22 02:30N 38°40' W 012°57'917.3
2017-Aug-22 02:00N 38°39' W 012°45'1117.4
2017-Aug-22 01:21N 38°38' W 012°31'717.4
2017-Aug-22 00:56N 38°37' W 012°22'817.4
2017-Aug-22 00:29N 38°36' W 012°12'817.3
2017-Aug-22 00:00N 38°35' W 012°01'1017.1
2017-Aug-21 23:25N 38°35' W 011°49'716.7
2017-Aug-21 23:00N 38°34' W 011°40'916.7
2017-Aug-21 22:29N 38°33' W 011°29'816.6
2017-Aug-21 22:00N 38°32' W 011°19'816.7
2017-Aug-21 21:31N 38°32' W 011°08'816.8
2017-Aug-21 21:00N 38°31' W 010°57'816.9
2017-Aug-21 20:31N 38°30' W 010°47'1016.5
2017-Aug-21 19:53N 38°29' W 010°34'617.1
2017-Aug-21 19:30N 38°28' W 010°25'917.1
2017-Aug-21 19:00N 38°27' W 010°15'817.0
2017-Aug-21 18:30N 38°29' W 010°04'917.1
2017-Aug-21 18:00N 38°30' W 009°53'815.8
2017-Aug-21 17:30N 38°29' W 009°43'917.2
2017-Aug-21 17:01N 38°34' W 009°34'917.4
2017-Aug-21 16:31N 38°37' W 009°23'815.3
2017-Aug-21 16:00N 38°41' W 009°15'510.8
2017-Aug-21 15:31N 38°42' W 009°08'2 0.4
2017-Aug-21 10:52N 38°43' W 009°07'0 0.0
2017-Aug-21 10:28N 38°43' W 009°07'0 0.0
2017-Aug-21 09:37N 38°43' W 009°07'0 0.0
2017-Aug-21 09:22N 38°43' W 009°07'0 0.0
2017-Aug-21 08:55N 38°43' W 009°07'0 0.0
2017-Aug-21 07:10N 38°43' W 009°07'0 0.0
2017-Aug-21 06:52N 38°43' W 009°07'0 0.0
2017-Aug-21 06:25N 38°43' W 009°07'0 0.0
2017-Aug-21 05:59N 38°43' W 009°07'2 3.3
2017-Aug-21 05:30N 38°42' W 009°08'5 9.9
2017-Aug-21 05:00N 38°41' W 009°14'3 5.5
2017-Aug-21 04:30N 38°41' W 009°17'4 8.9
2017-Aug-21 04:00N 38°38' W 009°22'510.3
2017-Aug-21 03:30N 38°36' W 009°28'2 3.5
2017-Aug-21 03:00N 38°35' W 009°26'2 4.9
2017-Aug-21 02:30N 38°32' W 009°26'3 6.3
2017-Aug-21 02:00N 38°29' W 009°26'3 6.2
2017-Aug-21 01:30N 38°26' W 009°25'3 6.0
2017-Aug-21 01:00N 38°23' W 009°24'3 6.1
2017-Aug-21 00:30N 38°20' W 009°23'3 6.0
2017-Aug-21 00:00N 38°17' W 009°23'3 5.7
2017-Aug-20 23:30N 38°15' W 009°23'3 5.8
2017-Aug-20 23:00N 38°12' W 009°23'3 6.0
2017-Aug-20 22:29N 38°09' W 009°23'8 5.7
2017-Aug-20 21:02N 38°00' W 009°23'1 5.3
2017-Aug-20 20:51N 37°59' W 009°23'2 5.5
2017-Aug-20 20:30N 37°57' W 009°23'3 5.6
2017-Aug-20 19:58N 37°54' W 009°23'74 5.4
2017-Aug-20 06:22N 36°42' W 009°01'411.9
2017-Aug-20 06:00N 36°41' W 008°56'1812.1
2017-Aug-20 04:30N 36°36' W 008°34'15012.4
2017-Aug-19 16:27N 35°58' W 005°34'5 9.9
2017-Aug-19 15:55N 35°60' W 005°28'511.1
2017-Aug-19 15:30N 36°02' W 005°24'5 8.3
2017-Aug-19 14:51N 36°08' W 005°25'0 0.0
2017-Aug-19 12:41N 36°08' W 005°25'1 2.3
2017-Aug-19 12:23N 36°08' W 005°25'3 8.9
2017-Aug-19 12:00N 36°05' W 005°24'2 1.6
2017-Aug-19 10:38N 36°03' W 005°23'0 2.7
2017-Aug-19 10:30N 36°03' W 005°23'5 9.1
2017-Aug-19 10:00N 36°04' W 005°17'21611.4
2017-Aug-18 15:05N 37°14' W 001°03'716.8
2017-Aug-18 14:39N 37°19' W 000°56'216.9
2017-Aug-18 14:30N 37°20' W 000°54'2816.5
2017-Aug-18 12:50N 37°39' W 000°29'3018.0
2017-Aug-18 11:10N 38°05' W 000°09'1018.4
2017-Aug-18 10:37N 38°13' W 000°02'318.3
2017-Aug-18 10:28N 38°16' W 000°00'918.3
2017-Aug-18 10:00N 38°23' E 000°05'98 2.7
2017-Aug-16 22:03N 39°59' E 000°31'111.1
2017-Aug-16 21:55N 40°00' E 000°33'511.1
2017-Aug-16 21:30N 40°03' E 000°37'611.4
2017-Aug-16 21:00N 40°07' E 000°43'611.4
2017-Aug-16 20:30N 40°11' E 000°48'611.3
2017-Aug-16 20:00N 40°15' E 000°53'611.1
2017-Aug-16 19:30N 40°18' E 000°59'611.1
2017-Aug-16 18:59N 40°22' E 001°04'511.1
2017-Aug-16 18:30N 40°26' E 001°10'611.2
2017-Aug-16 18:00N 40°30' E 001°15'611.5
2017-Aug-16 17:30N 40°34' E 001°20'611.5
2017-Aug-16 17:00N 40°37' E 001°26'610.9
2017-Aug-16 16:30N 40°41' E 001°32'611.2
2017-Aug-16 16:00N 40°46' E 001°36'611.6
2017-Aug-16 15:30N 40°50' E 001°41'611.4
2017-Aug-16 15:00N 40°54' E 001°45'611.2
2017-Aug-16 14:30N 40°59' E 001°50'611.0
2017-Aug-16 14:00N 41°03' E 001°55'912.1
2017-Aug-16 13:17N 41°10' E 002°02'917.1
2017-Aug-16 12:47N 41°16' E 002°10'311.8
2017-Aug-16 12:30N 41°20' E 002°10'2 0.8
2017-Aug-16 10:09N 41°21' E 002°10'0 0.0
2017-Aug-16 09:57N 41°21' E 002°10'0 0.0
2017-Aug-16 09:21N 41°21' E 002°10'0 0.0
2017-Aug-16 08:57N 41°21' E 002°10'0 0.0
2017-Aug-16 08:27N 41°21' E 002°10'0 0.0
2017-Aug-16 07:51N 41°21' E 002°10'0 0.0
2017-Aug-16 02:09N 41°21' E 002°10'0 0.0
2017-Aug-16 01:39N 41°21' E 002°10'0 0.0
2017-Aug-16 01:15N 41°21' E 002°10'1 1.6
2017-Aug-16 00:41N 41°20' E 002°10'2 0.3
2017-Aug-15 20:07N 41°19' E 002°11'0 0.1
2017-Aug-15 19:55N 41°19' E 002°11'0 0.0
2017-Aug-15 18:31N 41°19' E 002°11'0 0.2
2017-Aug-15 18:25N 41°19' E 002°11'0 0.0
2017-Aug-15 06:43N 41°19' E 002°11'0 0.0
2017-Aug-15 06:25N 41°19' E 002°11'0 0.0
2017-Aug-15 04:55N 41°19' E 002°11'0 0.0
2017-Aug-15 03:31N 41°19' E 002°11'0 0.0
2017-Aug-15 03:19N 41°19' E 002°11'0 0.1
2017-Aug-15 02:58N 41°19' E 002°11'0 0.0
2017-Aug-15 01:37N 41°19' E 002°11'0 0.0
2017-Aug-15 01:19N 41°19' E 002°11'0 0.0
2017-Aug-14 18:25N 41°19' E 002°11'0 0.0
2017-Aug-14 17:55N 41°19' E 002°11'0 0.0
2017-Aug-14 17:25N 41°19' E 002°11'0 0.0
2017-Aug-14 17:00N 41°19' E 002°11'0 0.0
2017-Aug-14 16:30N 41°19' E 002°11'0 0.0
2017-Aug-14 15:53N 41°19' E 002°11'0 0.0
2017-Aug-14 15:30N 41°19' E 002°11'0 0.0
2017-Aug-14 14:59N 41°19' E 002°11'0 0.0
2017-Aug-14 14:22N 41°19' E 002°11'0 0.0
2017-Aug-14 14:00N 41°19' E 002°11'0 0.0
2017-Aug-14 13:30N 41°19' E 002°11'0 0.0
2017-Aug-14 13:00N 41°19' E 002°11'6 3.1
2017-Aug-14 11:08N 41°18' E 002°19'210.9
2017-Aug-14 10:59N 41°19' E 002°21'5 9.4
2017-Aug-14 10:28N 41°19' E 002°27'1510.3
2017-Aug-14 09:01N 41°26' E 002°45'012.0
2017-Aug-14 09:00N 41°26' E 002°45'610.5
2017-Aug-14 08:27N 41°28' E 002°52'510.3
2017-Aug-14 08:00N 41°30' E 002°58'610.5
2017-Aug-14 07:27N 41°33' E 003°05'611.1
2017-Aug-14 06:54N 41°35' E 003°12'411.3
2017-Aug-14 06:30N 41°37' E 003°18'611.7
2017-Aug-14 05:59N 41°41' E 003°24'612.3
2017-Aug-14 05:30N 41°43' E 003°31'612.6
2017-Aug-14 05:00N 41°46' E 003°39'612.5
2017-Aug-14 04:30N 41°48' E 003°46'712.6
2017-Aug-14 03:55N 41°52' E 003°55'612.4
2017-Aug-14 03:29N 41°55' E 004°02'4212.5
2017-Aug-14 00:06N 42°12' E 004°53'413.2
2017-Aug-13 23:47N 42°14' E 004°58'  
Track history (hours):
 
Tides and Currents Weather Stations Pressure Air Temp Water Temp Dewpoint Dewpoint Depression Visibility Wind Speed Wind Dir Waves Ship Positions

Fritz Reuter

Last reported at 2017-Aug-23 23:22 UTC. Time now 2017-Sep-20 18:30 UTC.
Position N 40°00' W 030°02'.
Warning: this ship's position is 27 days out of date.

Length 178 m; draft 9.5 m.

Type: Ship (hazmat cat A). MMSI: 636091081.

Date/timePositionNaut miles runAvg speedWind from/ knotsBaromVisibWave heightAir tempDewpointWater temp
2017-Aug-23 23:22N 40°00' W 030°02'617.2
2017-Aug-23 23:00N 39°60' W 029°54'917.7
2017-Aug-23 22:30N 39°59' W 029°43'918.0
2017-Aug-23 21:59N 39°58' W 029°30'917.9
2017-Aug-23 21:29N 39°57' W 029°19'917.7
2017-Aug-23 21:00N 39°56' W 029°08'917.5
2017-Aug-23 20:30N 39°55' W 028°56'1017.8
2017-Aug-23 19:56N 39°54' W 028°43'818.3
2017-Aug-23 19:30N 39°53' W 028°33'918.4
2017-Aug-23 19:00N 39°52' W 028°21'918.2
2017-Aug-23 18:30N 39°51' W 028°09'918.1
2017-Aug-23 18:00N 39°50' W 027°58'59617.8
2017-Aug-22 08:36N 38°51' W 015°11'1217.3
2017-Aug-22 07:55N 38°49' W 014°56'717.1
2017-Aug-22 07:31N 38°49' W 014°47'917.5
2017-Aug-22 07:01N 38°48' W 014°36'1017.3
2017-Aug-22 06:26N 38°47' W 014°24'817.1
2017-Aug-22 06:00N 38°46' W 014°14'917.4
2017-Aug-22 05:30N 38°45' W 014°03'917.2
2017-Aug-22 04:59N 38°44' W 013°52'817.2
2017-Aug-22 04:30N 38°44' W 013°41'917.1
2017-Aug-22 04:00N 38°43' W 013°30'917.4
2017-Aug-22 03:31N 38°42' W 013°19'917.7
2017-Aug-22 03:01N 38°41' W 013°08'917.6
2017-Aug-22 02:30N 38°40' W 012°57'917.3
2017-Aug-22 02:00N 38°39' W 012°45'1117.4
2017-Aug-22 01:21N 38°38' W 012°31'717.4
2017-Aug-22 00:56N 38°37' W 012°22'817.4
2017-Aug-22 00:29N 38°36' W 012°12'817.3
2017-Aug-22 00:00N 38°35' W 012°01'1017.1
2017-Aug-21 23:25N 38°35' W 011°49'716.7
2017-Aug-21 23:00N 38°34' W 011°40'916.7
2017-Aug-21 22:29N 38°33' W 011°29'816.6
2017-Aug-21 22:00N 38°32' W 011°19'816.7
2017-Aug-21 21:31N 38°32' W 011°08'816.8
2017-Aug-21 21:00N 38°31' W 010°57'816.9
2017-Aug-21 20:31N 38°30' W 010°47'1016.5
2017-Aug-21 19:53N 38°29' W 010°34'617.1
2017-Aug-21 19:30N 38°28' W 010°25'917.1
2017-Aug-21 19:00N 38°27' W 010°15'817.0
2017-Aug-21 18:30N 38°29' W 010°04'917.1
2017-Aug-21 18:00N 38°30' W 009°53'815.8
2017-Aug-21 17:30N 38°29' W 009°43'917.2
2017-Aug-21 17:01N 38°34' W 009°34'917.4
2017-Aug-21 16:31N 38°37' W 009°23'815.3
2017-Aug-21 16:00N 38°41' W 009°15'510.8
2017-Aug-21 15:31N 38°42' W 009°08'2 0.4
2017-Aug-21 10:52N 38°43' W 009°07'0 0.0
2017-Aug-21 10:28N 38°43' W 009°07'0 0.0
2017-Aug-21 09:37N 38°43' W 009°07'0 0.0
2017-Aug-21 09:22N 38°43' W 009°07'0 0.0
2017-Aug-21 08:55N 38°43' W 009°07'0 0.0
2017-Aug-21 07:10N 38°43' W 009°07'0 0.0
2017-Aug-21 06:52N 38°43' W 009°07'0 0.0
2017-Aug-21 06:25N 38°43' W 009°07'0 0.0
2017-Aug-21 05:59N 38°43' W 009°07'2 3.3
2017-Aug-21 05:30N 38°42' W 009°08'5 9.9
2017-Aug-21 05:00N 38°41' W 009°14'3 5.5
2017-Aug-21 04:30N 38°41' W 009°17'4 8.9
2017-Aug-21 04:00N 38°38' W 009°22'510.3
2017-Aug-21 03:30N 38°36' W 009°28'2 3.5
2017-Aug-21 03:00N 38°35' W 009°26'2 4.9
2017-Aug-21 02:30N 38°32' W 009°26'3 6.3
2017-Aug-21 02:00N 38°29' W 009°26'3 6.2
2017-Aug-21 01:30N 38°26' W 009°25'3 6.0
2017-Aug-21 01:00N 38°23' W 009°24'3 6.1
2017-Aug-21 00:30N 38°20' W 009°23'3 6.0
2017-Aug-21 00:00N 38°17' W 009°23'3 5.7
2017-Aug-20 23:30N 38°15' W 009°23'3 5.8
2017-Aug-20 23:00N 38°12' W 009°23'3 6.0
2017-Aug-20 22:29N 38°09' W 009°23'8 5.7
2017-Aug-20 21:02N 38°00' W 009°23'1 5.3
2017-Aug-20 20:51N 37°59' W 009°23'2 5.5
2017-Aug-20 20:30N 37°57' W 009°23'3 5.6
2017-Aug-20 19:58N 37°54' W 009°23'74 5.4
2017-Aug-20 06:22N 36°42' W 009°01'411.9
2017-Aug-20 06:00N 36°41' W 008°56'1812.1
2017-Aug-20 04:30N 36°36' W 008°34'15012.4
2017-Aug-19 16:27N 35°58' W 005°34'5 9.9
2017-Aug-19 15:55N 35°60' W 005°28'511.1
2017-Aug-19 15:30N 36°02' W 005°24'5 8.3
2017-Aug-19 14:51N 36°08' W 005°25'0 0.0
2017-Aug-19 12:41N 36°08' W 005°25'1 2.3
2017-Aug-19 12:23N 36°08' W 005°25'3 8.9
2017-Aug-19 12:00N 36°05' W 005°24'2 1.6
2017-Aug-19 10:38N 36°03' W 005°23'0 2.7
2017-Aug-19 10:30N 36°03' W 005°23'5 9.1
2017-Aug-19 10:00N 36°04' W 005°17'21611.4
2017-Aug-18 15:05N 37°14' W 001°03'716.8
2017-Aug-18 14:39N 37°19' W 000°56'216.9
2017-Aug-18 14:30N 37°20' W 000°54'2816.5
2017-Aug-18 12:50N 37°39' W 000°29'3018.0
2017-Aug-18 11:10N 38°05' W 000°09'1018.4
2017-Aug-18 10:37N 38°13' W 000°02'318.3
2017-Aug-18 10:28N 38°16' W 000°00'918.3
2017-Aug-18 10:00N 38°23' E 000°05'98 2.7
2017-Aug-16 22:03N 39°59' E 000°31'111.1
2017-Aug-16 21:55N 40°00' E 000°33'511.1
2017-Aug-16 21:30N 40°03' E 000°37'611.4
2017-Aug-16 21:00N 40°07' E 000°43'611.4
2017-Aug-16 20:30N 40°11' E 000°48'611.3
2017-Aug-16 20:00N 40°15' E 000°53'611.1
2017-Aug-16 19:30N 40°18' E 000°59'611.1
2017-Aug-16 18:59N 40°22' E 001°04'511.1
2017-Aug-16 18:30N 40°26' E 001°10'611.2
2017-Aug-16 18:00N 40°30' E 001°15'611.5
2017-Aug-16 17:30N 40°34' E 001°20'611.5
2017-Aug-16 17:00N 40°37' E 001°26'610.9
2017-Aug-16 16:30N 40°41' E 001°32'611.2
2017-Aug-16 16:00N 40°46' E 001°36'611.6
2017-Aug-16 15:30N 40°50' E 001°41'611.4
2017-Aug-16 15:00N 40°54' E 001°45'611.2
2017-Aug-16 14:30N 40°59' E 001°50'611.0
2017-Aug-16 14:00N 41°03' E 001°55'912.1
2017-Aug-16 13:17N 41°10' E 002°02'917.1
2017-Aug-16 12:47N 41°16' E 002°10'311.8
2017-Aug-16 12:30N 41°20' E 002°10'2 0.8
2017-Aug-16 10:09N 41°21' E 002°10'0 0.0
2017-Aug-16 09:57N 41°21' E 002°10'0 0.0
2017-Aug-16 09:21N 41°21' E 002°10'0 0.0
2017-Aug-16 08:57N 41°21' E 002°10'0 0.0
2017-Aug-16 08:27N 41°21' E 002°10'0 0.0
2017-Aug-16 07:51N 41°21' E 002°10'0 0.0
2017-Aug-16 02:09N 41°21' E 002°10'0 0.0
2017-Aug-16 01:39N 41°21' E 002°10'0 0.0
2017-Aug-16 01:15N 41°21' E 002°10'1 1.6
2017-Aug-16 00:41N 41°20' E 002°10'2 0.3
2017-Aug-15 20:07N 41°19' E 002°11'0 0.1
2017-Aug-15 19:55N 41°19' E 002°11'0 0.0
2017-Aug-15 18:31N 41°19' E 002°11'0 0.2
2017-Aug-15 18:25N 41°19' E 002°11'0 0.0
2017-Aug-15 06:43N 41°19' E 002°11'0 0.0
2017-Aug-15 06:25N 41°19' E 002°11'0 0.0
2017-Aug-15 04:55N 41°19' E 002°11'0 0.0
2017-Aug-15 03:31N 41°19' E 002°11'0 0.0
2017-Aug-15 03:19N 41°19' E 002°11'0 0.1
2017-Aug-15 02:58N 41°19' E 002°11'0 0.0
2017-Aug-15 01:37N 41°19' E 002°11'0 0.0
2017-Aug-15 01:19N 41°19' E 002°11'0 0.0
2017-Aug-14 18:25N 41°19' E 002°11'0 0.0
2017-Aug-14 17:55N 41°19' E 002°11'0 0.0
2017-Aug-14 17:25N 41°19' E 002°11'0 0.0
2017-Aug-14 17:00N 41°19' E 002°11'0 0.0
2017-Aug-14 16:30N 41°19' E 002°11'0 0.0
2017-Aug-14 15:53N 41°19' E 002°11'0 0.0
2017-Aug-14 15:30N 41°19' E 002°11'0 0.0
2017-Aug-14 14:59N 41°19' E 002°11'0 0.0
2017-Aug-14 14:22N 41°19' E 002°11'0 0.0
2017-Aug-14 14:00N 41°19' E 002°11'0 0.0
2017-Aug-14 13:30N 41°19' E 002°11'0 0.0
2017-Aug-14 13:00N 41°19' E 002°11'6 3.1
2017-Aug-14 11:08N 41°18' E 002°19'210.9
2017-Aug-14 10:59N 41°19' E 002°21'5 9.4
2017-Aug-14 10:28N 41°19' E 002°27'1510.3
2017-Aug-14 09:01N 41°26' E 002°45'012.0
2017-Aug-14 09:00N 41°26' E 002°45'610.5
2017-Aug-14 08:27N 41°28' E 002°52'510.3
2017-Aug-14 08:00N 41°30' E 002°58'610.5
2017-Aug-14 07:27N 41°33' E 003°05'611.1
2017-Aug-14 06:54N 41°35' E 003°12'411.3
2017-Aug-14 06:30N 41°37' E 003°18'611.7
2017-Aug-14 05:59N 41°41' E 003°24'612.3
2017-Aug-14 05:30N 41°43' E 003°31'612.6
2017-Aug-14 05:00N 41°46' E 003°39'612.5
2017-Aug-14 04:30N 41°48' E 003°46'712.6
2017-Aug-14 03:55N 41°52' E 003°55'612.4
2017-Aug-14 03:29N 41°55' E 004°02'4212.5
2017-Aug-14 00:06N 42°12' E 004°53'413.2
2017-Aug-13 23:47N 42°14' E 004°58'  

Dump ship's entire track history